Time;durP1;ratioP1;P1;durP2;ratioP2;P2;SDS_P1;SDS_P2;PMS_P1;PMS_P2;Temp;Humidity;BMP_temperature;BMP_pressure;BME280_temperature;BME280_humidity;BME280_pressure;Samples;Min_cycle;Max_cycle;Signal;HPM_P1;HPM_P2
2022/11/01 21:31:33;;;;;;;2.43;1.97;;;;;;;14.73;49.23;95153.50;2439221;54;50702;-80
2022/11/01 21:34:04;;;;;;;2.67;2.30;;;;;;;14.61;49.33;95164.59;2614890;47;20157;-79
2022/11/01 21:36:36;;;;;;;2.43;2.23;;;;;;;14.86;48.12;95165.94;2616895;47;20213;-80
2022/11/01 21:39:12;;;;;;;2.03;1.30;;;;;;;14.55;49.79;95115.97;2616848;54;20153;-78
2022/11/01 21:41:43;;;;;;;2.93;2.13;;;;;;;14.86;49.94;95163.06;2616733;46;20164;-79
2022/11/01 21:44:28;;;;;;;2.17;1.97;;;;;;;14.82;50.36;95140.16;2617008;54;20145;-80
2022/11/01 21:47:13;;;;;;;1.73;1.63;;;;;;;15.63;51.69;95151.28;2616999;54;20166;-80
2022/11/01 21:49:42;;;;;;;6.33;1.80;;;;;;;16.32;49.22;95126.19;2617235;47;20149;-80
2022/11/01 21:52:11;;;;;;;2.30;2.10;;;;;;;16.32;46.49;95149.78;2616882;54;20167;-78
2022/11/01 21:54:41;;;;;;;3.13;2.93;;;;;;;16.90;49.68;95148.66;2616969;54;20161;-78
2022/11/01 21:57:12;;;;;;;2.40;2.30;;;;;;;17.19;48.68;95121.19;2617505;47;20160;-79
2022/11/01 21:59:41;;;;;;;3.40;2.30;;;;;;;17.07;45.98;95144.63;2618451;54;20171;-79
2022/11/01 22:02:15;;;;;;;2.27;1.70;;;;;;;16.59;44.42;95082.34;2618295;47;20252;-79
2022/11/01 22:04:44;;;;;;;2.30;2.10;;;;;;;16.46;46.66;95149.31;2618363;47;20160;-79
2022/11/01 22:07:13;;;;;;;3.47;3.10;;;;;;;16.22;47.32;95151.72;2618154;47;20164;-79
2022/11/01 22:09:42;;;;;;;6.03;3.37;;;;;;;16.07;49.23;95121.44;2618310;54;20157;-79
2022/11/01 22:12:10;;;;;;;2.80;2.57;;;;;;;16.94;49.78;95140.88;2618050;54;20153;-79
2022/11/01 22:14:39;;;;;;;7.33;3.40;;;;;;;15.97;46.24;95111.28;2618236;47;20161;-80
2022/11/01 22:17:08;;;;;;;3.67;2.97;;;;;;;15.55;48.18;95131.13;2618450;47;20200;-80
2022/11/01 22:19:39;;;;;;;6.33;3.33;;;;;;;15.10;48.56;95108.72;2618171;47;20164;-79
2022/11/01 22:22:08;;;;;;;4.07;3.00;;;;;;;15.50;49.60;95149.56;2618298;54;20157;-82
2022/11/01 22:24:36;;;;;;;1.23;1.23;;;;;;;15.72;47.09;95122.88;2618741;47;20156;-82
2022/11/01 22:27:05;;;;;;;2.27;1.87;;;;;;;15.76;46.28;95112.28;2618538;54;20720;-79
2022/11/01 22:29:34;;;;;;;1.63;1.47;;;;;;;16.08;45.97;95114.31;2619071;39;20647;-79
2022/11/01 22:32:03;;;;;;;2.27;2.17;;;;;;;15.72;47.28;95129.31;2618367;47;20220;-79
2022/11/01 22:34:32;;;;;;;2.93;2.73;;;;;;;15.43;47.89;95116.59;2618775;47;20177;-80
2022/11/01 22:37:03;;;;;;;2.43;1.80;;;;;;;15.46;46.76;95115.19;2618532;47;20193;-79
2022/11/01 22:39:32;;;;;;;8.37;2.43;;;;;;;15.54;46.93;95103.25;2618503;54;20145;-79
2022/11/01 22:42:02;;;;;;;2.17;2.07;;;;;;;16.27;45.58;95136.09;2618307;47;20193;-79
2022/11/01 22:44:33;;;;;;;1.70;1.60;;;;;;;14.68;49.22;95139.81;2618497;47;20145;-79
2022/11/01 22:47:05;;;;;;;7.77;2.00;;;;;;;14.35;49.91;95124.72;2618341;54;20200;-80
2022/11/01 22:49:36;;;;;;;2.00;1.90;;;;;;;13.71;51.28;95087.44;2617744;47;20168;-80
2022/11/01 22:52:18;;;;;;;5.60;3.23;;;;;;;14.42;50.20;95100.00;2617586;47;20194;-80
2022/11/01 22:54:49;;;;;;;2.33;2.13;;;;;;;15.37;51.12;95130.72;2619061;54;20152;-79
2022/11/01 22:57:20;;;;;;;2.63;2.27;;;;;;;15.71;49.13;95110.78;2618604;47;20153;-79
2022/11/01 22:59:53;;;;;;;5.80;2.27;;;;;;;16.42;50.55;95109.22;2618627;54;20152;-79
2022/11/01 23:02:33;;;;;;;3.77;1.70;;;;;;;16.37;44.90;95104.84;2618493;47;20705;-80
2022/11/01 23:05:23;;;;;;;1.47;1.37;;;;;;;15.63;46.50;95128.44;2619018;39;20607;-79
2022/11/01 23:07:56;;;;;;;1.90;1.80;;;;;;;14.60;49.40;95085.47;2618362;47;20208;-80
2022/11/01 23:10:28;;;;;;;1.47;1.40;;;;;;;14.85;48.72;95113.88;2618460;54;20149;-79
2022/11/01 23:16:00;;;;;;;2.20;2.03;;;;;;;15.37;48.29;95093.63;2617824;47;20156;-80
2022/11/01 23:18:33;;;;;;;2.53;2.40;;;;;;;14.83;48.69;95107.38;2618560;47;20684;-79
2022/11/01 23:21:04;;;;;;;3.83;1.90;;;;;;;14.17;50.17;95110.03;2618462;54;20164;-79
2022/11/01 23:23:38;;;;;;;2.13;1.92;;;;;;;13.30;52.76;95124.69;2618196;54;20380;-79
2022/11/01 23:26:07;;;;;;;1.60;1.50;;;;;;;12.63;54.45;95111.97;2618987;47;20152;-80
2022/11/01 23:28:36;;;;;;;11.33;2.43;;;;;;;11.41;58.12;95087.22;2621115;47;20156;-79
2022/11/01 23:31:06;;;;;;;1.77;1.67;;;;;;;11.36;59.06;95116.81;2620632;54;20207;-79
2022/11/01 23:33:38;;;;;;;1.60;1.60;;;;;;;11.76;58.31;95089.19;2618366;54;20240;-79
2022/11/01 23:36:16;;;;;;;2.10;0.93;;;;;;;12.30;56.86;95118.69;2619472;54;20145;-80
2022/11/01 23:38:51;;;;;;;2.20;1.60;;;;;;;12.27;56.91;95091.63;2619807;54;20145;-79
2022/11/01 23:41:25;;;;;;;3.80;1.77;;;;;;;12.66;55.94;95122.00;2619880;54;20660;-79
2022/11/01 23:43:57;;;;;;;3.60;1.70;;;;;;;13.12;54.36;95094.28;2620139;47;20153;-79
2022/11/01 23:46:27;;;;;;;1.17;1.17;;;;;;;13.75;52.48;95124.56;2620310;54;20149;-79
2022/11/01 23:49:02;;;;;;;10.27;2.70;;;;;;;14.25;54.84;95110.22;2618692;47;20149;-79
2022/11/01 23:51:32;;;;;;;1.30;1.27;;;;;;;15.05;53.40;95090.03;2618752;47;20149;-79
2022/11/01 23:54:05;;;;;;;1.30;1.20;;;;;;;15.89;50.27;95090.38;2618370;54;20176;-80
2022/11/01 23:56:34;;;;;;;2.37;2.17;;;;;;;16.54;50.37;95131.56;2618218;47;20187;-80
2022/11/01 23:59:05;;;;;;;2.43;1.90;;;;;;;16.85;49.81;95130.69;2619399;54;20153;-80
